»·PEaware :: N8573X KFAT-KMRY

N8573X :: KFAT-KMRY

FLIGHT INFORMATION

Flight Status: Arrived
Operator: Privately registered:
United States
More flights under this callsign
Pilot: Tommy H. (35970)
Aircraft: PIPER PA-28 CHEROKEE ARCHER
(P28A)
More flights by this aircraft type
Origin: KFAT Fresno Yosemite Intl
United States
Destination: KMRY Monterey Peninsula
United States
More flights between these airports :: More routes between these airports
Route: PXN
File this flight plan on PilotEdge
Remarks:
Altitude:
(Current/Filed)
6,500ft
Speed:
(Current/Filed)
0kts
Departed: 30-Sep-21 03:25 PM
Arrived: 30-Sep-21 04:28 PM
Distance/Time
Traveled:
103nm/1:03
Distance/Time
To Go:
Arrived

Flight Plot

Page will automatically refresh every two minutes.

Flight plan parsing failed; only flown route is shown


Map Options




Map Legend


Flown Route
Filed Route
Departure Airport
Arrival Airport
Navaid (VOR, NDB)
Fix

Horizontal Profiles

Position Reports

Time Latitude Longitude Heading Altitude Ground
Speed
30-Sep-21 15:08 36.778958 -119.731086 124 331ft 0kts
30-Sep-21 15:09 36.778958 -119.731086 124 331ft 0kts
30-Sep-21 15:10 36.779031 -119.730918 47 331ft 7kts
30-Sep-21 15:11 36.777850 -119.728280 125 333ft 15kts
30-Sep-21 15:12 36.776331 -119.725781 125 333ft 17kts
30-Sep-21 15:13 36.774550 -119.722647 125 331ft 18kts
30-Sep-21 15:14 36.772878 -119.719932 109 330ft 15kts
30-Sep-21 15:15 36.772329 -119.717308 125 330ft 14kts
30-Sep-21 15:16 36.771342 -119.714400 125 331ft 21kts
30-Sep-21 15:17 36.769499 -119.711171 125 330ft 16kts
30-Sep-21 15:18 36.767785 -119.708164 124 331ft 13kts
30-Sep-21 15:19 36.767605 -119.705295 90 333ft 12kts
30-Sep-21 15:20 36.768039 -119.704256 315 334ft 0kts
30-Sep-21 15:21 36.768039 -119.704256 315 334ft 0kts
30-Sep-21 15:22 36.768181 -119.704271 8 334ft 4kts
30-Sep-21 15:23 36.768765 -119.703813 30 335ft 7kts
30-Sep-21 15:24 36.772813 -119.710645 300 490ft 77kts
30-Sep-21 15:25 36.778591 -119.724136 287 1045ft 80kts
30-Sep-21 15:26 36.776632 -119.738467 250 1586ft 79kts
30-Sep-21 15:27 36.772648 -119.752243 238 2081ft 80kts
30-Sep-21 15:28 36.768370 -119.766166 260 2545ft 83kts
30-Sep-21 15:29 36.766589 -119.781203 260 3027ft 82kts
30-Sep-21 15:30 36.765776 -119.797161 269 3534ft 82kts
30-Sep-21 15:31 36.766971 -119.813737 276 4085ft 83kts
30-Sep-21 15:32 36.769726 -119.831179 279 4623ft 85kts
30-Sep-21 15:33 36.770236 -119.850309 270 5167ft 87kts
30-Sep-21 15:34 36.771632 -119.871545 272 5717ft 88kts
30-Sep-21 15:35 36.771347 -119.893804 261 6296ft 88kts
30-Sep-21 15:36 36.766418 -119.919320 252 6498ft 112kts
30-Sep-21 15:37 36.761449 -119.951674 261 6452ft 113kts
30-Sep-21 15:38 36.761125 -119.984752 273 6480ft 114kts
30-Sep-21 15:39 36.761857 -120.018237 272 6520ft 112kts
30-Sep-21 15:40 36.761975 -120.052697 267 6506ft 116kts
30-Sep-21 15:41 36.758967 -120.087895 261 6498ft 116kts
30-Sep-21 15:42 36.755057 -120.123798 262 6490ft 116kts
30-Sep-21 15:43 36.752324 -120.161312 266 6480ft 116kts
30-Sep-21 15:44 36.751100 -120.199441 269 6470ft 116kts
30-Sep-21 15:45 36.751870 -120.237751 261 6457ft 116kts
30-Sep-21 15:46 36.748786 -120.275860 263 6444ft 116kts
30-Sep-21 15:47 36.743955 -120.313685 264 6433ft 116kts
30-Sep-21 15:48 36.741850 -120.352341 266 6423ft 116kts
30-Sep-21 15:49 36.740144 -120.391155 267 6415ft 116kts
30-Sep-21 15:50 36.739155 -120.430790 268 6402ft 116kts
30-Sep-21 15:51 36.738856 -120.470349 264 6394ft 116kts
30-Sep-21 15:52 36.731770 -120.509524 254 6446ft 113kts
30-Sep-21 15:53 36.728846 -120.549280 267 6524ft 115kts
30-Sep-21 15:54 36.727272 -120.590326 266 6522ft 117kts
30-Sep-21 15:55 36.724235 -120.631909 263 6477ft 117kts
30-Sep-21 15:56 36.721725 -120.671536 268 6438ft 117kts
30-Sep-21 15:57 36.720621 -120.709465 254 6400ft 117kts
30-Sep-21 15:58 36.717780 -120.752234 274 6406ft 116kts
30-Sep-21 15:59 36.714551 -120.795780 258 6432ft 115kts
30-Sep-21 16:00 36.710079 -120.839474 269 6440ft 116kts
30-Sep-21 16:01 36.706355 -120.882756 260 6453ft 116kts
30-Sep-21 16:02 36.702676 -120.925568 266 6460ft 116kts
30-Sep-21 16:03 36.698576 -120.967970 262 6467ft 116kts
30-Sep-21 16:04 36.695051 -121.010065 263 6471ft 116kts
30-Sep-21 16:05 36.689457 -121.051627 253 6445ft 118kts
30-Sep-21 16:06 36.686356 -121.092633 278 6456ft 116kts
30-Sep-21 16:07 36.689805 -121.134068 277 6453ft 116kts
30-Sep-21 16:08 36.686986 -121.175833 262 6394ft 118kts
30-Sep-21 16:10 36.681440 -121.224487 261 6340ft 117kts
30-Sep-21 16:10 36.677341 -121.255633 259 6302ft 118kts
30-Sep-21 16:11 36.673820 -121.300478 260 6280ft 116kts
30-Sep-21 16:12 36.669946 -121.340607 271 6445ft 112kts
30-Sep-21 16:13 36.670492 -121.380746 262 6556ft 115kts
30-Sep-21 16:14 36.665450 -121.421075 265 6567ft 115kts
30-Sep-21 16:15 36.660114 -121.461518 257 6492ft 117kts
30-Sep-21 16:16 36.655564 -121.500579 265 5886ft 113kts
30-Sep-21 16:17 36.651627 -121.539014 261 5232ft 112kts
30-Sep-21 16:18 36.647216 -121.575888 260 4635ft 111kts
30-Sep-21 16:19 36.639325 -121.610691 248 4085ft 110kts
30-Sep-21 16:20 36.628761 -121.644119 250 3570ft 109kts
30-Sep-21 16:21 36.614830 -121.679336 240 3035ft 109kts
30-Sep-21 16:22 36.597969 -121.714904 221 2455ft 108kts
30-Sep-21 16:23 36.579772 -121.748700 247 1964ft 106kts
30-Sep-21 16:24 36.572621 -121.784849 271 1328ft 83kts
30-Sep-21 16:25 36.575734 -121.810135 286 882ft 69kts
30-Sep-21 16:26 36.582523 -121.831033 292 387ft 67kts
30-Sep-21 16:27 36.586679 -121.843481 292 202ft 23kts
30-Sep-21 16:28 36.586986 -121.845895 202 192ft 0kts
30-Sep-21 16:29 36.585322 -121.846544 158 207ft 6kts
30-Sep-21 16:30 36.585177 -121.845719 29 216ft 0kts
30-Sep-21 16:31 36.585177 -121.845719 29 216ft 0kts

Navigation Log

Ident Type
Flight plan parsing failed, navigation log unavailable